Pocono Lake, Pennsylvania
Current Conditions -  °F | °C
As of 4:53 PM on Wednesday 28 Jan 2015 (Local Time) from KMPO Reporting Station
Clear Clear  
Wind Chill: -13°   Ceiling: Unl
Heat Index: -5°   Visibility: 10mi
Dew Point: -18°   Wind: 17mph
Humidity: 37%   Direction: 320°NW
Pressure: 30.06"   Gusts: 23mph
Location:  41.09°N, 75.58°W
Report Text: KMPO 282153Z AUTO 32015G20KT 10SM CLR M05/M18 A3006 RMK AO2 SLP214 T10501178
Loading
Personal Weather Stations






























Interactive Weather Map New forecast layout! Learn more

10-Day Weather Forecast

Advertisements
Track Severe Weather on mobile